createdAt,value
2019-01-24T00:01:08.997Z,41.13
2019-01-24T00:03:38.499Z,42.03
2019-01-24T00:06:07.989Z,40.87
2019-01-24T00:08:37.533Z,42.60
2019-01-24T00:11:07.047Z,40.77
2019-01-24T00:13:36.634Z,42.40
2019-01-24T00:16:06.598Z,41.70
2019-01-24T00:18:36.182Z,42.77
2019-01-24T00:21:05.691Z,39.47
2019-01-24T00:23:35.204Z,40.43
2019-01-24T00:26:04.874Z,39.90
2019-01-24T00:28:34.351Z,39.57
2019-01-24T00:31:03.874Z,40.37
2019-01-24T00:33:33.354Z,40.00
2019-01-24T00:36:02.891Z,38.80
2019-01-24T00:38:32.402Z,40.40
2019-01-24T00:41:01.920Z,39.17
2019-01-24T00:43:31.475Z,39.73
2019-01-24T00:46:00.992Z,39.70
2019-01-24T00:48:30.485Z,39.67
2019-01-24T00:50:59.983Z,39.53
2019-01-24T00:53:29.482Z,40.17
2019-01-24T00:55:58.990Z,39.43
2019-01-24T00:58:28.463Z,38.70
2019-01-24T01:00:57.955Z,37.97
2019-01-24T01:03:27.435Z,39.50
2019-01-24T01:05:56.987Z,40.83
2019-01-24T01:08:26.511Z,38.53
2019-01-24T01:10:56.006Z,36.87
2019-01-24T01:13:25.499Z,38.73
2019-01-24T01:15:55.051Z,40.60
2019-01-24T01:18:24.583Z,38.40
2019-01-24T01:20:54.098Z,37.93
2019-01-24T01:23:23.637Z,38.57
2019-01-24T01:25:53.130Z,38.33
2019-01-24T01:28:22.640Z,40.53
2019-01-24T01:30:52.140Z,40.27
2019-01-24T01:33:21.684Z,41.97
2019-01-24T01:35:51.341Z,40.20
2019-01-24T01:38:20.844Z,40.13
2019-01-24T01:40:50.389Z,40.20
2019-01-24T01:43:19.931Z,40.70
2019-01-24T01:45:49.434Z,42.73
2019-01-24T01:48:18.952Z,41.17
2019-01-24T01:50:48.497Z,40.83
2019-01-24T01:53:18.010Z,41.53
2019-01-24T01:55:47.507Z,41.17
2019-01-24T01:58:17.300Z,40.57
2019-01-24T02:00:46.948Z,40.23
2019-01-24T02:03:16.441Z,38.07
2019-01-24T02:05:45.965Z,41.13
2019-01-24T02:08:15.488Z,40.00
2019-01-24T02:10:45.027Z,38.57
2019-01-24T02:13:14.543Z,39.13
2019-01-24T02:15:44.095Z,39.70
2019-01-24T02:18:13.919Z,39.97
2019-01-24T02:20:43.455Z,38.50
2019-01-24T02:23:12.970Z,40.73
2019-01-24T02:25:42.766Z,40.00
2019-01-24T02:28:12.297Z,39.33
2019-01-24T02:30:41.842Z,38.37
2019-01-24T02:33:11.378Z,39.53
2019-01-24T02:35:40.908Z,40.30
2019-01-24T02:38:10.424Z,40.63
2019-01-24T02:40:39.972Z,40.27
2019-01-24T02:43:09.486Z,41.87
2019-01-24T02:45:39.051Z,38.93
2019-01-24T02:48:08.604Z,40.03
2019-01-24T02:50:38.128Z,40.53
2019-01-24T02:53:07.659Z,40.00
2019-01-24T02:55:37.451Z,38.80
2019-01-24T02:58:06.979Z,41.03
2019-01-24T03:00:36.476Z,40.73
2019-01-24T03:03:06.060Z,41.83
2019-01-24T03:05:35.581Z,40.53
2019-01-24T03:08:05.131Z,41.30
2019-01-24T03:10:34.659Z,40.37
2019-01-24T03:13:04.214Z,41.37
2019-01-24T03:15:33.762Z,40.93
2019-01-24T03:18:03.306Z,44.33
2019-01-24T03:20:32.835Z,44.23
2019-01-24T03:23:02.332Z,43.90
2019-01-24T03:25:32.088Z,44.33
2019-01-24T03:28:01.624Z,44.60
2019-01-24T03:30:31.225Z,43.67
2019-01-24T03:33:00.762Z,44.03
2019-01-24T03:35:30.287Z,44.77
2019-01-24T03:37:59.801Z,43.27
2019-01-24T03:40:29.340Z,42.20
2019-01-24T03:42:58.904Z,45.10
2019-01-24T03:45:28.591Z,44.90
2019-01-24T03:47:58.139Z,42.30
2019-01-24T03:50:27.681Z,44.73
2019-01-24T03:52:57.235Z,43.57
2019-01-24T03:55:26.818Z,44.17
2019-01-24T03:57:56.381Z,43.83
2019-01-24T04:00:26.222Z,45.40
2019-01-24T04:02:55.899Z,45.60
2019-01-24T04:05:25.445Z,45.00
2019-01-24T04:07:54.974Z,44.83
2019-01-24T04:10:24.564Z,42.87
2019-01-24T04:12:54.097Z,42.27
2019-01-24T04:15:25.364Z,43.33
2019-01-24T04:17:54.994Z,46.17
2019-01-24T04:20:24.635Z,45.30
2019-01-24T04:22:54.213Z,43.00
2019-01-24T04:25:23.943Z,42.83
2019-01-24T04:27:53.499Z,43.20
2019-01-24T04:30:22.988Z,43.37
2019-01-24T04:32:52.507Z,42.83
2019-01-24T04:35:22.374Z,41.20
2019-01-24T04:37:51.906Z,40.27
2019-01-24T04:40:21.774Z,41.60
2019-01-24T04:42:51.355Z,41.40
2019-01-24T04:45:21.223Z,44.17
2019-01-24T04:47:50.766Z,41.97
2019-01-24T04:50:20.321Z,44.83
2019-01-24T04:52:49.836Z,42.77
2019-01-24T04:55:20.832Z,40.63
2019-01-24T04:57:50.502Z,41.60
2019-01-24T05:00:25.405Z,41.63
2019-01-24T05:02:54.931Z,39.67
2019-01-24T05:05:27.844Z,40.07
2019-01-24T05:07:55.635Z,41.30
2019-01-24T05:10:25.259Z,43.00
2019-01-24T05:12:54.816Z,41.30
2019-01-24T05:15:24.383Z,41.30
2019-01-24T05:17:53.885Z,41.03
2019-01-24T05:20:23.407Z,41.87
2019-01-24T05:22:52.930Z,41.33
2019-01-24T05:25:22.520Z,40.70
2019-01-24T05:27:52.085Z,40.13
2019-01-24T05:30:29.774Z,40.13
2019-01-24T05:32:59.318Z,38.47
2019-01-24T05:35:34.746Z,40.17
2019-01-24T05:38:00.034Z,41.77
2019-01-24T05:40:29.545Z,39.37
2019-01-24T05:42:59.083Z,37.93
2019-01-24T05:45:28.572Z,39.47
2019-01-24T05:47:58.187Z,38.80
2019-01-24T05:50:27.709Z,37.90
2019-01-24T05:52:57.233Z,38.07
2019-01-24T05:55:26.752Z,38.07
2019-01-24T05:57:56.280Z,36.93
2019-01-24T06:00:32.719Z,35.50
2019-01-24T06:03:02.264Z,36.47
2019-01-24T06:05:31.838Z,38.37
2019-01-24T06:08:01.411Z,36.97
2019-01-24T06:10:30.928Z,36.43
2019-01-24T06:13:00.506Z,36.20
2019-01-24T06:15:30.013Z,34.70
2019-01-24T06:17:59.549Z,35.30
2019-01-24T06:20:29.077Z,36.17
2019-01-24T06:22:58.594Z,33.70
2019-01-24T06:25:28.136Z,32.87
2019-01-24T06:27:57.673Z,35.73
2019-01-24T06:30:27.215Z,33.93
2019-01-24T06:32:56.799Z,33.40
2019-01-24T06:35:26.394Z,36.37
2019-01-24T06:37:55.942Z,33.37
2019-01-24T06:40:25.506Z,34.43
2019-01-24T06:42:55.068Z,35.07
2019-01-24T06:45:24.608Z,32.70
2019-01-24T06:47:54.114Z,34.47
2019-01-24T06:50:23.676Z,32.57
2019-01-24T06:52:53.176Z,35.30
2019-01-24T06:55:29.834Z,34.60
2019-01-24T06:57:59.336Z,32.63
2019-01-24T07:00:28.916Z,33.53
2019-01-24T07:02:58.428Z,33.73
2019-01-24T07:05:28.078Z,32.27
2019-01-24T07:07:57.606Z,32.90
2019-01-24T07:10:27.119Z,31.87
2019-01-24T07:12:56.720Z,31.73
2019-01-24T07:15:26.215Z,32.07
2019-01-24T07:17:55.911Z,31.53
2019-01-24T07:20:25.541Z,31.73
2019-01-24T07:22:55.067Z,30.07
2019-01-24T07:25:26.881Z,31.07
2019-01-24T07:27:56.371Z,31.23
2019-01-24T07:30:25.918Z,32.20
2019-01-24T07:32:55.444Z,33.87
2019-01-24T07:35:24.971Z,30.87
2019-01-24T07:37:54.524Z,31.23
2019-01-24T07:40:24.926Z,32.13
2019-01-24T07:42:54.597Z,32.93
2019-01-24T07:45:32.679Z,33.43
2019-01-24T07:48:02.220Z,32.30
2019-01-24T07:50:31.770Z,33.83
2019-01-24T07:53:01.301Z,33.73
2019-01-24T07:55:30.839Z,32.10
2019-01-24T07:58:00.393Z,32.07
2019-01-24T08:00:30.227Z,32.00
2019-01-24T08:02:59.794Z,35.10
2019-01-24T08:05:29.612Z,32.43
2019-01-24T08:07:59.123Z,32.43
2019-01-24T08:10:28.663Z,32.77
2019-01-24T08:12:58.253Z,33.00
2019-01-24T08:15:29.170Z,33.30
2019-01-24T08:17:59.037Z,34.27
2019-01-24T08:20:29.043Z,33.20
2019-01-24T08:22:58.603Z,32.07
2019-01-24T08:25:28.154Z,34.07
2019-01-24T08:27:57.666Z,32.07
2019-01-24T08:30:34.355Z,32.63
2019-01-24T08:33:05.202Z,31.73
2019-01-24T08:35:34.870Z,33.33
2019-01-24T08:38:05.076Z,36.63
2019-01-24T08:40:34.596Z,35.80
2019-01-24T08:43:04.231Z,38.63
2019-01-24T08:45:33.950Z,42.40
2019-01-24T08:48:04.431Z,38.60
2019-01-24T08:50:33.939Z,38.77
2019-01-24T08:53:03.515Z,36.97
2019-01-24T08:55:35.576Z,35.60
2019-01-24T08:58:05.753Z,39.57
2019-01-24T09:00:35.241Z,42.80
2019-01-24T09:03:05.071Z,41.73
2019-01-24T09:05:34.621Z,34.30
2019-01-24T09:08:04.768Z,34.77
2019-01-24T09:10:36.558Z,34.63
2019-01-24T09:13:07.235Z,32.67
2019-01-24T09:15:37.062Z,34.83
2019-01-24T09:18:07.787Z,33.13
2019-01-24T09:20:37.304Z,34.23
2019-01-24T09:23:08.279Z,33.17
2019-01-24T09:25:37.899Z,33.50
2019-01-24T09:28:07.431Z,34.67
2019-01-24T09:30:36.983Z,33.73
2019-01-24T09:33:06.714Z,35.70
2019-01-24T09:35:36.282Z,38.53
2019-01-24T09:38:05.824Z,39.23
2019-01-24T09:40:35.572Z,38.90
2019-01-24T09:43:05.282Z,35.60
2019-01-24T09:45:34.980Z,35.90
2019-01-24T09:48:06.031Z,34.90
2019-01-24T09:50:35.584Z,35.50
2019-01-24T09:53:05.341Z,36.30
2019-01-24T09:55:34.893Z,37.10
2019-01-24T09:58:04.576Z,37.07
2019-01-24T10:00:36.015Z,36.03
2019-01-24T10:03:06.522Z,38.40
2019-01-24T10:05:36.096Z,35.10
2019-01-24T10:08:06.621Z,36.10
2019-01-24T10:10:36.131Z,36.47
2019-01-24T10:13:06.498Z,36.13
2019-01-24T10:15:36.161Z,36.77
2019-01-24T10:18:05.923Z,36.27
2019-01-24T10:20:35.435Z,36.10
2019-01-24T10:23:05.237Z,37.77
2019-01-24T10:25:39.327Z,36.57
2019-01-24T10:28:09.779Z,37.77
2019-01-24T10:30:43.034Z,39.03
2019-01-24T10:33:10.660Z,37.00
2019-01-24T10:35:40.207Z,37.97
2019-01-24T10:38:09.782Z,37.63
2019-01-24T10:40:39.303Z,36.70
2019-01-24T10:43:09.228Z,37.83
2019-01-24T10:45:38.826Z,37.07
2019-01-24T10:48:08.755Z,38.17
2019-01-24T10:50:38.283Z,37.00
2019-01-24T10:53:07.840Z,37.47
2019-01-24T10:55:37.589Z,39.47
2019-01-24T10:58:07.850Z,37.57
2019-01-24T11:00:40.458Z,35.33
2019-01-24T11:03:12.464Z,37.10
2019-01-24T11:05:42.031Z,37.07
2019-01-24T11:08:11.701Z,37.97
2019-01-24T11:10:41.222Z,41.20
2019-01-24T11:13:10.795Z,38.93
2019-01-24T11:15:40.360Z,37.00
2019-01-24T11:18:09.859Z,38.03
2019-01-24T11:20:39.405Z,37.80
2019-01-24T11:23:09.002Z,36.83
2019-01-24T11:25:38.530Z,33.80
2019-01-24T11:28:08.089Z,34.77
2019-01-24T11:30:37.596Z,33.97
2019-01-24T11:33:08.121Z,33.67
2019-01-24T11:35:38.083Z,32.80
2019-01-24T11:38:07.734Z,34.10
2019-01-24T11:40:37.206Z,36.70
2019-01-24T11:43:07.572Z,35.60
2019-01-24T11:45:44.537Z,33.07
2019-01-24T11:48:14.128Z,33.10
2019-01-24T11:50:43.657Z,35.13
2019-01-24T11:53:13.166Z,34.00
2019-01-24T11:55:42.696Z,33.80
2019-01-24T11:58:12.237Z,46.93
2019-01-24T12:00:49.302Z,38.67
2019-01-24T12:03:18.940Z,47.87
2019-01-24T12:05:48.640Z,41.63
2019-01-24T12:08:18.160Z,40.70
2019-01-24T12:10:47.837Z,34.63
2019-01-24T12:13:17.395Z,42.80
2019-01-24T12:15:46.928Z,34.57
2019-01-24T12:18:16.445Z,32.67
2019-01-24T12:20:45.937Z,30.83
2019-01-24T12:23:15.466Z,35.60
2019-01-24T12:25:44.993Z,30.63
2019-01-24T12:28:14.536Z,31.97
2019-01-24T12:30:44.059Z,32.43
2019-01-24T12:33:13.571Z,31.33
2019-01-24T12:35:43.075Z,33.67
2019-01-24T12:38:12.626Z,31.53
2019-01-24T12:40:42.160Z,32.43
2019-01-24T12:43:11.715Z,34.67
2019-01-24T12:45:41.232Z,29.70
2019-01-24T12:48:10.771Z,31.87
2019-01-24T12:50:40.320Z,30.17
2019-01-24T12:53:09.844Z,33.33
2019-01-24T12:55:39.354Z,31.83
2019-01-24T12:58:08.951Z,31.33
2019-01-24T13:00:39.643Z,31.23
2019-01-24T13:03:09.282Z,31.33
2019-01-24T13:05:38.843Z,31.00
2019-01-24T13:08:10.336Z,31.60
2019-01-24T13:10:39.870Z,32.73
2019-01-24T13:13:09.451Z,32.13
2019-01-24T13:15:39.411Z,31.80
2019-01-24T13:18:09.045Z,31.87
2019-01-24T13:20:38.543Z,31.17
2019-01-24T13:23:08.083Z,33.53
2019-01-24T13:25:37.703Z,30.77
2019-01-24T13:28:07.679Z,34.07
2019-01-24T13:30:37.334Z,31.70
2019-01-24T13:33:07.608Z,33.90
2019-01-24T13:35:37.514Z,33.23
2019-01-24T13:38:07.672Z,32.23
2019-01-24T13:40:37.224Z,31.97
2019-01-24T13:43:07.762Z,31.90
2019-01-24T13:45:39.058Z,32.13
2019-01-24T13:48:09.005Z,31.43
2019-01-24T13:50:38.643Z,33.50
2019-01-24T13:53:08.171Z,33.27
2019-01-24T13:55:39.397Z,32.53
2019-01-24T13:58:09.619Z,33.27
2019-01-24T14:00:40.817Z,34.33
2019-01-24T14:03:51.342Z,32.03
2019-01-24T14:06:20.824Z,30.43
2019-01-24T14:08:50.375Z,31.40
2019-01-24T14:11:19.900Z,31.43
2019-01-24T14:13:49.466Z,32.50
2019-01-24T14:16:19.071Z,30.37
2019-01-24T14:18:48.603Z,30.93
2019-01-24T14:21:18.140Z,32.33
2019-01-24T14:23:47.682Z,30.53
2019-01-24T14:26:17.177Z,32.00
2019-01-24T14:28:46.735Z,33.23
2019-01-24T14:31:16.245Z,32.60
2019-01-24T14:33:45.735Z,31.37
2019-01-24T14:36:15.243Z,29.57
2019-01-24T14:38:44.785Z,31.23
2019-01-24T14:41:14.327Z,29.33
2019-01-24T14:43:43.860Z,30.57
2019-01-24T14:46:13.509Z,31.17
2019-01-24T14:48:43.017Z,30.70
2019-01-24T14:51:12.599Z,29.83
2019-01-24T14:53:42.086Z,31.80
2019-01-24T14:56:11.626Z,31.00
2019-01-24T14:58:41.155Z,30.37
2019-01-24T15:01:16.546Z,30.07
2019-01-24T15:03:46.113Z,34.17
2019-01-24T15:06:15.634Z,33.37
2019-01-24T15:08:45.238Z,34.60
2019-01-24T15:11:14.731Z,33.90
2019-01-24T15:13:44.331Z,34.47
2019-01-24T15:16:13.864Z,33.70
2019-01-24T15:18:43.404Z,33.20
2019-01-24T15:21:12.956Z,32.50
2019-01-24T15:23:42.451Z,33.00
2019-01-24T15:26:12.017Z,36.37
2019-01-24T15:28:41.563Z,33.57
2019-01-24T15:31:11.099Z,32.50
2019-01-24T15:33:40.624Z,33.50
2019-01-24T15:36:10.123Z,33.20
2019-01-24T15:38:39.654Z,35.97
2019-01-24T15:41:09.158Z,33.90
2019-01-24T15:43:38.697Z,32.37
2019-01-24T15:46:08.244Z,32.53
2019-01-24T15:48:42.446Z,34.13
2019-01-24T15:51:09.088Z,34.90
2019-01-24T15:53:38.625Z,36.83
2019-01-24T15:56:08.161Z,34.60
2019-01-24T15:58:37.690Z,35.67
2019-01-24T16:01:07.256Z,35.33
2019-01-24T16:03:36.771Z,37.93
2019-01-24T16:06:06.564Z,37.20
2019-01-24T16:08:36.102Z,37.27
2019-01-24T16:11:06.031Z,35.10
2019-01-24T16:13:35.572Z,36.03
2019-01-24T16:16:05.483Z,34.77
2019-01-24T16:18:35.050Z,36.57
2019-01-24T16:21:04.677Z,35.43
2019-01-24T16:23:34.176Z,33.97
2019-01-24T16:26:03.715Z,35.40
2019-01-24T16:28:33.214Z,35.80
2019-01-24T16:31:02.825Z,36.97
2019-01-24T16:33:32.329Z,33.97
2019-01-24T16:36:01.887Z,35.23
2019-01-24T16:38:31.415Z,36.93
2019-01-24T16:41:00.978Z,35.67
2019-01-24T16:43:30.485Z,33.77
2019-01-24T16:46:00.032Z,33.67
2019-01-24T16:48:29.561Z,35.60
2019-01-24T16:50:59.035Z,34.90
2019-01-24T16:53:28.585Z,34.63
2019-01-24T16:55:58.115Z,35.93
2019-01-24T16:58:27.656Z,35.47
2019-01-24T17:01:04.848Z,36.17
2019-01-24T17:03:34.396Z,36.20
2019-01-24T17:06:03.897Z,36.50
2019-01-24T17:08:33.542Z,37.13
2019-01-24T17:11:03.046Z,38.33
2019-01-24T17:13:32.595Z,36.23
2019-01-24T17:16:02.214Z,36.40
2019-01-24T17:18:31.772Z,35.30
2019-01-24T17:21:01.272Z,35.50
2019-01-24T17:23:30.818Z,34.50
2019-01-24T17:26:00.335Z,33.80
2019-01-24T17:28:29.837Z,35.83
2019-01-24T17:30:59.381Z,34.17
2019-01-24T17:33:28.888Z,36.57
2019-01-24T17:35:58.529Z,37.17
2019-01-24T17:38:28.026Z,36.23
2019-01-24T17:40:57.585Z,36.17
2019-01-24T17:43:27.123Z,37.03
2019-01-24T17:45:56.650Z,38.27
2019-01-24T17:48:26.191Z,38.97
2019-01-24T17:50:55.720Z,38.53
2019-01-24T17:53:25.233Z,38.50
2019-01-24T17:55:54.748Z,38.63
2019-01-24T17:58:24.387Z,37.23
2019-01-24T18:00:54.521Z,37.30
2019-01-24T18:03:24.048Z,36.77
2019-01-24T18:05:53.818Z,38.43
2019-01-24T18:08:23.366Z,39.30
2019-01-24T18:10:52.900Z,40.50
2019-01-24T18:13:22.424Z,38.23
2019-01-24T18:15:51.987Z,40.33
2019-01-24T18:18:21.545Z,39.83
2019-01-24T18:20:51.063Z,38.83
2019-01-24T18:23:20.621Z,39.10
2019-01-24T18:25:50.123Z,38.67
2019-01-24T18:28:19.624Z,41.53
2019-01-24T18:30:49.181Z,41.80
2019-01-24T18:33:18.695Z,39.90
2019-01-24T18:35:48.490Z,41.43
2019-01-24T18:38:18.034Z,38.63
2019-01-24T18:40:47.735Z,39.67
2019-01-24T18:43:20.974Z,40.13
2019-01-24T18:45:51.414Z,41.30
2019-01-24T18:48:21.055Z,41.63
2019-01-24T18:50:50.990Z,39.50
2019-01-24T18:53:20.539Z,40.00
2019-01-24T18:55:50.074Z,38.10
2019-01-24T18:58:19.601Z,38.63
2019-01-24T19:00:49.151Z,41.20
2019-01-24T19:03:18.685Z,40.83
2019-01-24T19:05:48.197Z,40.33
2019-01-24T19:08:17.755Z,39.63
2019-01-24T19:10:47.274Z,39.40
2019-01-24T19:13:16.809Z,40.47
2019-01-24T19:15:48.492Z,44.73
2019-01-24T19:18:17.979Z,43.17
2019-01-24T19:20:47.523Z,40.53
2019-01-24T19:23:17.071Z,42.50
2019-01-24T19:25:46.615Z,40.20
2019-01-24T19:28:18.043Z,43.03
2019-01-24T19:30:47.857Z,40.53
2019-01-24T19:33:16.734Z,40.90
2019-01-24T19:35:46.283Z,40.50
2019-01-24T19:38:15.795Z,41.63
2019-01-24T19:40:45.434Z,41.80
2019-01-24T19:43:14.951Z,41.83
2019-01-24T19:45:44.558Z,41.80
2019-01-24T19:48:14.106Z,41.17
2019-01-24T19:50:43.634Z,43.50
2019-01-24T19:53:13.183Z,42.40
2019-01-24T19:55:42.726Z,39.57
2019-01-24T19:58:12.948Z,42.00
2019-01-24T20:00:42.492Z,42.23
2019-01-24T20:03:12.005Z,42.70
2019-01-24T20:05:41.548Z,41.27
2019-01-24T20:08:11.075Z,41.87
2019-01-24T20:10:40.601Z,42.17
2019-01-24T20:13:10.128Z,42.57
2019-01-24T20:15:39.641Z,42.80
2019-01-24T20:18:09.403Z,40.33
2019-01-24T20:20:39.008Z,47.17
2019-01-24T20:23:08.632Z,43.30
2019-01-24T20:25:38.181Z,40.80
2019-01-24T20:28:07.721Z,39.70
2019-01-24T20:30:37.247Z,41.27
2019-01-24T20:33:07.384Z,41.13
2019-01-24T20:35:57.215Z,40.90
2019-01-24T20:38:26.793Z,39.40
2019-01-24T20:40:56.309Z,40.93
2019-01-24T20:43:25.991Z,42.10
2019-01-24T20:45:55.593Z,40.90
2019-01-24T20:48:25.139Z,39.27
2019-01-24T20:50:55.149Z,41.70
2019-01-24T20:53:24.963Z,38.17
2019-01-24T20:55:54.568Z,39.80
2019-01-24T20:58:25.072Z,39.97
2019-01-24T21:00:54.579Z,41.33
2019-01-24T21:03:24.108Z,38.07
2019-01-24T21:05:53.641Z,40.97
2019-01-24T21:08:23.213Z,42.83
2019-01-24T21:10:52.739Z,40.57
2019-01-24T21:13:22.370Z,43.10
2019-01-24T21:15:52.003Z,41.80
2019-01-24T21:18:21.541Z,42.43
2019-01-24T21:20:51.080Z,43.13
2019-01-24T21:23:20.603Z,40.07
2019-01-24T21:25:50.105Z,40.90
2019-01-24T21:28:19.688Z,44.17
2019-01-24T21:30:49.184Z,42.90
2019-01-24T21:33:18.719Z,41.50
2019-01-24T21:35:48.273Z,41.70
2019-01-24T21:38:17.955Z,41.73
2019-01-24T21:40:47.452Z,43.70
2019-01-24T21:43:16.976Z,42.37
2019-01-24T21:45:46.494Z,41.87
2019-01-24T21:48:16.005Z,44.83
2019-01-24T21:50:45.563Z,43.13
2019-01-24T21:53:15.101Z,44.20
2019-01-24T21:55:44.842Z,42.63
2019-01-24T21:58:14.359Z,43.07
2019-01-24T22:00:43.873Z,43.27
2019-01-24T22:03:13.437Z,44.60
2019-01-24T22:05:43.007Z,43.77
2019-01-24T22:08:54.431Z,43.60
2019-01-24T22:11:24.197Z,44.63
2019-01-24T22:13:53.923Z,44.53
2019-01-24T22:16:23.534Z,41.83
2019-01-24T22:18:53.228Z,44.00
2019-01-24T22:21:22.909Z,43.43
2019-01-24T22:23:52.573Z,42.77
2019-01-24T22:26:22.405Z,44.13
2019-01-24T22:28:52.096Z,43.73
2019-01-24T22:31:21.719Z,44.87
2019-01-24T22:33:51.400Z,43.97
2019-01-24T22:36:21.000Z,42.27
2019-01-24T22:38:50.681Z,43.77
2019-01-24T22:41:20.307Z,44.27
2019-01-24T22:43:49.935Z,42.57
2019-01-24T22:46:19.590Z,44.03
2019-01-24T22:48:49.456Z,43.60
2019-01-24T22:51:19.157Z,42.43
2019-01-24T22:53:48.815Z,42.40
2019-01-24T22:56:18.504Z,42.40
2019-01-24T22:58:48.148Z,42.27
2019-01-24T23:01:55.469Z,41.03
2019-01-24T23:04:26.188Z,41.50
2019-01-24T23:06:55.835Z,41.73
2019-01-24T23:09:25.451Z,40.27
2019-01-24T23:11:55.092Z,40.87
2019-01-24T23:14:24.709Z,40.27
2019-01-24T23:16:54.444Z,39.30
2019-01-24T23:19:24.040Z,40.37
2019-01-24T23:21:53.676Z,39.73
2019-01-24T23:24:23.334Z,40.27
2019-01-24T23:26:52.965Z,38.77
2019-01-24T23:29:22.653Z,39.87
2019-01-24T23:31:52.281Z,39.53
2019-01-24T23:34:21.948Z,38.53
2019-01-24T23:36:51.556Z,41.20
2019-01-24T23:39:21.448Z,39.27
2019-01-24T23:41:51.031Z,38.57
2019-01-24T23:44:20.963Z,38.90
2019-01-24T23:46:50.769Z,39.17
2019-01-24T23:49:20.540Z,39.27
2019-01-24T23:51:50.173Z,38.67
2019-01-24T23:54:19.872Z,40.17
2019-01-24T23:56:49.432Z,39.07
2019-01-24T23:59:19.043Z,37.13
